createdAt,value
2019-06-26T00:00:01.088Z,14
2019-06-26T00:01:01.087Z,13
2019-06-26T00:02:01.116Z,16
2019-06-26T00:04:01.087Z,18
2019-06-26T00:05:01.099Z,17
2019-06-26T00:06:01.094Z,18
2019-06-26T00:11:01.129Z,19
2019-06-26T00:12:01.089Z,17
2019-06-26T00:13:01.088Z,15
2019-06-26T00:14:01.097Z,16
2019-06-26T00:15:01.091Z,15
2019-06-26T00:16:01.117Z,12
2019-06-26T00:17:01.108Z,13
2019-06-26T00:18:01.089Z,15
2019-06-26T00:19:01.092Z,16
2019-06-26T00:20:01.092Z,15
2019-06-26T00:21:01.128Z,19
2019-06-26T00:22:01.089Z,20
2019-06-26T00:24:01.091Z,18
2019-06-26T00:25:01.088Z,20
2019-06-26T00:26:01.120Z,18
2019-06-26T00:27:01.089Z,16
2019-06-26T00:28:01.089Z,15
2019-06-26T00:30:01.095Z,13
2019-06-26T00:31:01.137Z,14
2019-06-26T00:32:01.100Z,13
2019-06-26T00:33:01.092Z,12
2019-06-26T00:34:01.091Z,14
2019-06-26T00:35:01.096Z,16
2019-06-26T00:37:01.122Z,17
2019-06-26T00:39:01.095Z,16
2019-06-26T00:40:01.095Z,14
2019-06-26T00:42:01.129Z,15
2019-06-26T00:43:01.096Z,16
2019-06-26T00:45:01.097Z,17
2019-06-26T00:47:01.109Z,20
2019-06-26T00:50:01.078Z,21
2019-06-26T00:51:01.082Z,23
2019-06-26T00:52:01.104Z,20
2019-06-26T00:53:01.079Z,21
2019-06-26T00:54:01.078Z,19
2019-06-26T00:56:01.094Z,18
2019-06-26T00:57:01.103Z,17
2019-06-26T01:00:01.079Z,17
2019-06-26T01:02:01.106Z,18
2019-06-26T01:03:01.079Z,17
2019-06-26T01:04:01.079Z,18
2019-06-26T01:05:01.080Z,16
2019-06-26T01:06:01.080Z,15
2019-06-26T01:07:01.156Z,14
2019-06-26T01:08:01.079Z,15
2019-06-26T01:09:01.079Z,16
2019-06-26T01:10:01.083Z,17
2019-06-26T01:12:01.131Z,16
2019-06-26T01:13:01.078Z,17
2019-06-26T01:14:01.078Z,16
2019-06-26T01:15:01.082Z,17
2019-06-26T01:16:01.105Z,18
2019-06-26T01:17:01.083Z,20
2019-06-26T01:18:01.086Z,19
2019-06-26T01:19:01.082Z,18
2019-06-26T01:20:01.097Z,17
2019-06-26T01:22:01.115Z,16
2019-06-26T01:24:01.083Z,20
2019-06-26T01:25:01.086Z,19
2019-06-26T01:26:01.110Z,20
2019-06-26T01:27:01.085Z,19
2019-06-26T01:28:01.080Z,20
2019-06-26T01:29:01.087Z,16
2019-06-26T01:30:01.083Z,17
2019-06-26T01:31:01.109Z,16
2019-06-26T01:32:01.082Z,18
2019-06-26T01:33:01.085Z,16
2019-06-26T01:34:01.084Z,17
2019-06-26T01:36:01.116Z,15
2019-06-26T01:38:01.091Z,18
2019-06-26T01:40:01.171Z,19
2019-06-26T01:41:01.080Z,20
2019-06-26T01:42:01.098Z,19
2019-06-26T01:43:01.088Z,16
2019-06-26T01:45:01.108Z,16
2019-06-26T01:46:01.081Z,15
2019-06-26T01:47:01.083Z,17
2019-06-26T01:51:01.083Z,18
2019-06-26T01:52:01.090Z,16
2019-06-26T01:53:01.093Z,17
2019-06-26T01:54:01.100Z,15
2019-06-26T01:55:01.110Z,16
2019-06-26T01:56:01.087Z,15
2019-06-26T01:57:01.088Z,14
2019-06-26T01:58:01.087Z,15
2019-06-26T02:00:01.132Z,16
2019-06-26T02:02:01.100Z,18
2019-06-26T02:03:01.088Z,19
2019-06-26T02:04:02.116Z,20
2019-06-26T02:06:01.093Z,19
2019-06-26T02:07:01.093Z,20
2019-06-26T02:08:01.091Z,18
2019-06-26T02:10:01.101Z,15
2019-06-26T02:11:01.101Z,16
2019-06-26T02:12:01.088Z,15
2019-06-26T02:13:01.088Z,16
2019-06-26T02:15:01.102Z,18
2019-06-26T02:16:01.090Z,19
2019-06-26T02:20:01.095Z,18
2019-06-26T02:21:01.099Z,19
2019-06-26T02:22:01.092Z,17
2019-06-26T02:23:01.090Z,16
2019-06-26T02:26:01.097Z,17
2019-06-26T02:28:01.098Z,18
2019-06-26T02:30:01.092Z,19
2019-06-26T02:31:01.133Z,17
2019-06-26T02:32:01.095Z,19
2019-06-26T02:34:01.120Z,20
2019-06-26T02:36:01.095Z,18
2019-06-26T02:37:01.115Z,16
2019-06-26T02:39:01.138Z,15
2019-06-26T02:44:01.082Z,16
2019-06-26T02:45:01.076Z,16
2019-06-26T02:46:01.078Z,17
2019-06-26T02:48:01.104Z,19
2019-06-26T02:49:01.076Z,18
2019-06-26T02:50:01.086Z,17
2019-06-26T02:51:01.078Z,16
2019-06-26T02:52:01.077Z,17
2019-06-26T02:54:01.112Z,18
2019-06-26T02:55:01.081Z,20
2019-06-26T02:56:01.085Z,19
2019-06-26T02:58:01.077Z,18
2019-06-26T02:59:01.104Z,16
2019-06-26T03:00:01.093Z,15
2019-06-26T03:02:01.081Z,16
2019-06-26T03:03:01.077Z,15
2019-06-26T03:04:01.106Z,16
2019-06-26T03:07:01.076Z,17
2019-06-26T03:08:01.082Z,19
2019-06-26T03:09:01.118Z,18
2019-06-26T03:11:01.080Z,19
2019-06-26T03:12:01.087Z,17
2019-06-26T03:13:01.080Z,18
2019-06-26T03:14:01.109Z,19
2019-06-26T03:15:08.618Z,18
2019-06-26T03:17:01.094Z,19
2019-06-26T03:18:01.083Z,17
2019-06-26T03:19:01.103Z,18
2019-06-26T03:22:01.104Z,17
2019-06-26T03:24:01.081Z,16
2019-06-26T03:25:01.080Z,15
2019-06-26T03:28:01.080Z,17
2019-06-26T03:29:01.106Z,18
2019-06-26T03:30:01.079Z,18
2019-06-26T03:31:01.081Z,19
2019-06-26T03:33:01.118Z,18
2019-06-26T03:34:01.081Z,16
2019-06-26T03:36:01.078Z,15
2019-06-26T03:37:01.112Z,16
2019-06-26T03:40:01.108Z,17
2019-06-26T03:41:01.114Z,16
2019-06-26T03:42:01.106Z,15
2019-06-26T03:43:01.092Z,16
2019-06-26T03:44:01.081Z,17
2019-06-26T03:45:01.082Z,16
2019-06-26T03:46:01.101Z,18
2019-06-26T03:47:01.112Z,16
2019-06-26T03:51:01.083Z,15
2019-06-26T03:52:01.111Z,18
2019-06-26T03:53:01.083Z,16
2019-06-26T03:56:01.083Z,14
2019-06-26T03:57:01.112Z,13
2019-06-26T03:58:01.084Z,14
2019-06-26T04:00:01.427Z,16
2019-06-26T04:01:01.088Z,17
2019-06-26T04:05:01.085Z,16
2019-06-26T04:06:01.112Z,15
2019-06-26T04:08:01.085Z,16
2019-06-26T04:09:01.088Z,17
2019-06-26T04:10:01.085Z,18
2019-06-26T04:15:01.091Z,17
2019-06-26T04:18:01.095Z,16
2019-06-26T04:19:01.087Z,17
2019-06-26T04:20:01.086Z,15
2019-06-26T04:23:01.104Z,16
2019-06-26T04:24:01.091Z,15
2019-06-26T04:25:01.086Z,16
2019-06-26T04:29:01.088Z,18
2019-06-26T04:30:01.146Z,19
2019-06-26T04:33:01.085Z,17
2019-06-26T04:34:01.085Z,15
2019-06-26T04:39:01.086Z,16
2019-06-26T04:40:01.110Z,17
2019-06-26T04:41:01.095Z,15
2019-06-26T04:42:01.085Z,17
2019-06-26T04:43:01.123Z,20
2019-06-26T04:45:01.089Z,20
2019-06-26T04:46:01.087Z,22
2019-06-26T04:47:01.098Z,20
2019-06-26T04:48:01.086Z,16
2019-06-26T04:50:01.089Z,15
2019-06-26T04:54:01.085Z,16
2019-06-26T04:57:01.090Z,18
2019-06-26T04:58:01.089Z,19
2019-06-26T04:59:01.086Z,18
2019-06-26T05:00:01.092Z,18
2019-06-26T05:01:01.086Z,16
2019-06-26T05:02:01.099Z,15
2019-06-26T05:03:01.093Z,16
2019-06-26T05:05:01.090Z,17
2019-06-26T05:06:01.090Z,18
2019-06-26T05:07:01.098Z,17
2019-06-26T05:08:01.101Z,16
2019-06-26T05:10:01.130Z,17
2019-06-26T05:11:01.072Z,16
2019-06-26T05:12:01.072Z,15
2019-06-26T05:13:01.075Z,16
2019-06-26T05:14:01.124Z,18
2019-06-26T05:15:01.073Z,17
2019-06-26T05:17:01.081Z,19
2019-06-26T05:18:01.102Z,20
2019-06-26T05:19:01.073Z,17
2019-06-26T05:20:01.072Z,18
2019-06-26T05:21:01.078Z,19
2019-06-26T05:22:01.081Z,18
2019-06-26T05:23:01.100Z,20
2019-06-26T05:26:01.076Z,18
2019-06-26T05:27:01.072Z,17
2019-06-26T05:28:01.102Z,15
2019-06-26T05:30:01.072Z,14
2019-06-26T05:32:01.079Z,15
2019-06-26T05:33:01.098Z,16
2019-06-26T05:34:01.072Z,15
2019-06-26T05:35:01.072Z,17
2019-06-26T05:36:01.075Z,18
2019-06-26T05:38:01.101Z,17
2019-06-26T05:39:01.074Z,19
2019-06-26T05:40:01.072Z,18
2019-06-26T05:41:01.075Z,19
2019-06-26T05:43:01.102Z,20
2019-06-26T05:44:01.075Z,18
2019-06-26T05:45:01.077Z,18
2019-06-26T05:46:01.136Z,16
2019-06-26T05:47:01.103Z,14
2019-06-26T05:48:01.083Z,13
2019-06-26T05:51:01.084Z,15
2019-06-26T05:52:02.142Z,18
2019-06-26T05:54:01.080Z,19
2019-06-26T05:55:01.081Z,17
2019-06-26T05:57:01.109Z,16
2019-06-26T05:58:01.082Z,18
2019-06-26T06:00:01.085Z,19
2019-06-26T06:02:01.110Z,17
2019-06-26T06:03:01.085Z,15
2019-06-26T06:05:01.083Z,14
2019-06-26T06:06:01.087Z,16
2019-06-26T06:07:01.111Z,15
2019-06-26T06:08:01.083Z,14
2019-06-26T06:09:01.088Z,13
2019-06-26T06:11:01.082Z,12
2019-06-26T06:13:01.084Z,14
2019-06-26T06:14:01.085Z,16
2019-06-26T06:15:01.082Z,17
2019-06-26T06:16:01.109Z,18
2019-06-26T06:19:01.084Z,17
2019-06-26T06:20:01.098Z,19
2019-06-26T06:21:01.114Z,18
2019-06-26T06:24:01.097Z,17
2019-06-26T06:25:01.084Z,16
2019-06-26T06:26:01.108Z,18
2019-06-26T06:27:01.079Z,17
2019-06-26T06:28:01.080Z,16
2019-06-26T06:29:01.080Z,18
2019-06-26T06:30:01.124Z,16
2019-06-26T06:31:01.117Z,15
2019-06-26T06:32:01.083Z,16
2019-06-26T06:33:01.084Z,15
2019-06-26T06:34:01.089Z,13
2019-06-26T06:37:01.113Z,12
2019-06-26T06:38:01.084Z,13
2019-06-26T06:39:01.086Z,16
2019-06-26T06:40:01.149Z,17
2019-06-26T06:41:01.125Z,16
2019-06-26T06:42:01.089Z,18
2019-06-26T06:43:01.089Z,17
2019-06-26T06:44:01.086Z,16
2019-06-26T06:45:01.086Z,16
2019-06-26T06:46:01.126Z,17
2019-06-26T06:47:04.119Z,16
2019-06-26T06:48:01.089Z,18
2019-06-26T06:49:01.086Z,16
2019-06-26T06:51:01.124Z,18
2019-06-26T06:52:01.099Z,17
2019-06-26T06:53:01.086Z,18
2019-06-26T06:54:01.087Z,19
2019-06-26T06:56:01.115Z,17
2019-06-26T06:57:01.093Z,19
2019-06-26T06:58:01.089Z,18
2019-06-26T06:59:01.088Z,17
2019-06-26T07:00:01.120Z,17
2019-06-26T07:01:01.096Z,18
2019-06-26T07:05:01.090Z,17
2019-06-26T07:06:01.093Z,16
2019-06-26T07:10:01.093Z,14
2019-06-26T07:11:01.101Z,15
2019-06-26T07:13:01.077Z,14
2019-06-26T07:15:01.078Z,15
2019-06-26T07:16:01.076Z,17
2019-06-26T07:17:01.581Z,18
2019-06-26T07:19:01.117Z,19
2019-06-26T07:20:01.079Z,20
2019-06-26T07:21:01.089Z,19
2019-06-26T07:24:01.108Z,16
2019-06-26T07:25:01.080Z,13
2019-06-26T07:28:02.053Z,12
2019-06-26T07:29:01.111Z,15
2019-06-26T07:30:01.083Z,14
2019-06-26T07:31:01.082Z,16
2019-06-26T07:33:01.085Z,18
2019-06-26T07:35:01.112Z,19
2019-06-26T07:36:01.084Z,18
2019-06-26T07:40:02.193Z,16
2019-06-26T07:41:01.086Z,18
2019-06-26T07:43:01.088Z,17
2019-06-26T07:44:01.111Z,15
2019-06-26T07:45:01.122Z,16
2019-06-26T07:46:01.084Z,15
2019-06-26T07:47:01.085Z,13
2019-06-26T07:48:01.084Z,15
2019-06-26T07:49:01.143Z,17
2019-06-26T07:50:01.084Z,16
2019-06-26T07:52:01.084Z,18
2019-06-26T07:53:01.082Z,16
2019-06-26T07:54:01.093Z,14
2019-06-26T07:55:01.086Z,17
2019-06-26T07:56:01.084Z,15
2019-06-26T07:59:01.117Z,16
2019-06-26T08:00:01.082Z,16
2019-06-26T08:01:01.119Z,17
2019-06-26T08:02:01.084Z,19
2019-06-26T08:03:04.161Z,18
2019-06-26T08:04:01.087Z,16
2019-06-26T08:05:01.090Z,14
2019-06-26T08:07:01.132Z,13
2019-06-26T08:08:01.083Z,15
2019-06-26T08:10:01.090Z,17
2019-06-26T08:11:01.083Z,18
2019-06-26T08:12:01.083Z,17
2019-06-26T08:13:01.081Z,16
2019-06-26T08:15:01.083Z,16
2019-06-26T08:16:01.089Z,15
2019-06-26T08:17:01.081Z,14
2019-06-26T08:18:01.659Z,16
2019-06-26T08:20:01.095Z,15
2019-06-26T08:22:01.119Z,18
2019-06-26T08:24:01.087Z,19
2019-06-26T08:26:01.083Z,17
2019-06-26T08:28:01.083Z,16
2019-06-26T08:30:01.085Z,16
2019-06-26T08:31:01.081Z,18
2019-06-26T08:32:01.083Z,17
2019-06-26T08:33:01.086Z,16
2019-06-26T08:34:01.106Z,17
2019-06-26T08:36:01.086Z,15
2019-06-26T08:38:10.128Z,17
2019-06-26T08:39:01.082Z,14
2019-06-26T08:40:01.085Z,16
2019-06-26T08:41:01.085Z,17
2019-06-26T08:42:01.084Z,18
2019-06-26T08:44:01.089Z,17
2019-06-26T08:45:01.084Z,15
2019-06-26T08:47:01.096Z,16
2019-06-26T08:48:16.562Z,14
2019-06-26T08:50:01.069Z,15
2019-06-26T08:51:01.159Z,14
2019-06-26T08:53:01.084Z,15
2019-06-26T08:54:04.484Z,17
2019-06-26T08:55:01.112Z,18
2019-06-26T08:57:01.096Z,17
2019-06-26T08:58:01.092Z,16
2019-06-26T08:59:01.133Z,15
2019-06-26T09:00:06.100Z,13
2019-06-26T09:02:01.083Z,14
2019-06-26T09:03:01.084Z,13
2019-06-26T09:04:01.085Z,14
2019-06-26T09:06:01.111Z,15
2019-06-26T09:08:01.111Z,16
2019-06-26T09:09:01.093Z,15
2019-06-26T09:10:01.087Z,16
2019-06-26T09:11:01.108Z,15
2019-06-26T09:13:01.090Z,16
2019-06-26T09:14:01.280Z,18
2019-06-26T09:15:01.097Z,17
2019-06-26T09:18:01.087Z,16
2019-06-26T09:21:01.171Z,17
2019-06-26T09:22:01.122Z,16
2019-06-26T09:24:01.123Z,13
2019-06-26T09:26:01.092Z,12
2019-06-26T09:28:01.089Z,13
2019-06-26T09:29:01.092Z,15
2019-06-26T09:30:01.101Z,17
2019-06-26T09:31:01.092Z,18
2019-06-26T09:34:01.092Z,17
2019-06-26T09:35:01.091Z,14
2019-06-26T09:36:01.090Z,12
2019-06-26T09:37:06.103Z,11
2019-06-26T09:38:01.091Z,12
2019-06-26T09:40:01.091Z,13
2019-06-26T09:41:01.093Z,15
2019-06-26T09:42:01.115Z,16
2019-06-26T09:44:01.090Z,17
2019-06-26T09:45:01.101Z,15
2019-06-26T09:46:01.092Z,14
2019-06-26T09:47:01.316Z,15
2019-06-26T09:49:01.144Z,13
2019-06-26T09:50:01.091Z,14
2019-06-26T09:51:01.091Z,15
2019-06-26T09:52:01.118Z,14
2019-06-26T09:53:04.915Z,13
2019-06-26T09:54:01.089Z,15
2019-06-26T09:55:01.093Z,16
2019-06-26T09:56:01.102Z,15
2019-06-26T09:57:01.251Z,17
2019-06-26T09:59:01.145Z,15
2019-06-26T10:00:01.161Z,16
2019-06-26T10:01:01.099Z,17
2019-06-26T10:02:01.107Z,15
2019-06-26T10:04:01.097Z,16
2019-06-26T10:05:01.120Z,15
2019-06-26T10:06:01.096Z,13
2019-06-26T10:10:01.078Z,12
2019-06-26T10:11:01.174Z,14
2019-06-26T10:12:01.077Z,15
2019-06-26T10:14:01.086Z,16
2019-06-26T10:15:01.078Z,18
2019-06-26T10:16:01.105Z,15
2019-06-26T10:17:01.080Z,16
2019-06-26T10:18:01.080Z,15
2019-06-26T10:19:09.865Z,16
2019-06-26T10:21:01.178Z,17
2019-06-26T10:22:01.105Z,16
2019-06-26T10:24:01.176Z,15
2019-06-26T10:26:01.109Z,16
2019-06-26T10:27:01.081Z,17
2019-06-26T10:29:01.127Z,19
2019-06-26T10:30:01.089Z,18
2019-06-26T10:32:01.112Z,17
2019-06-26T10:33:01.084Z,16
2019-06-26T10:34:01.095Z,14
2019-06-26T10:35:01.087Z,15
2019-06-26T10:36:01.114Z,14
2019-06-26T10:37:01.087Z,15
2019-06-26T10:38:01.100Z,16
2019-06-26T10:39:01.085Z,18
2019-06-26T10:40:01.111Z,16
2019-06-26T10:42:01.090Z,17
2019-06-26T10:43:01.083Z,16
2019-06-26T10:44:01.084Z,15
2019-06-26T10:45:01.113Z,16
2019-06-26T10:48:01.089Z,17
2019-06-26T10:49:01.089Z,15
2019-06-26T10:51:01.086Z,16
2019-06-26T10:53:01.081Z,17
2019-06-26T10:54:01.085Z,18
2019-06-26T10:58:01.108Z,16
2019-06-26T10:59:01.333Z,15
2019-06-26T11:00:01.111Z,15
2019-06-26T11:01:01.088Z,14
2019-06-26T11:02:01.081Z,15
2019-06-26T11:03:01.081Z,16
2019-06-26T11:04:01.080Z,19
2019-06-26T11:06:01.087Z,20
2019-06-26T11:07:01.078Z,19
2019-06-26T11:08:01.080Z,18
2019-06-26T11:14:01.080Z,19
2019-06-26T11:15:01.129Z,19
2019-06-26T11:16:01.080Z,18
2019-06-26T11:17:01.078Z,17
2019-06-26T11:18:01.081Z,18
2019-06-26T11:19:01.082Z,17
2019-06-26T11:20:01.079Z,19
2019-06-26T11:21:01.079Z,18
2019-06-26T11:22:01.079Z,17
2019-06-26T11:23:01.128Z,15
2019-06-26T11:24:01.080Z,14
2019-06-26T11:25:01.084Z,12
2019-06-26T11:26:01.081Z,13
2019-06-26T11:27:01.085Z,14
2019-06-26T11:28:01.081Z,17
2019-06-26T11:30:01.134Z,17
2019-06-26T11:31:01.109Z,16
2019-06-26T11:33:01.079Z,15
2019-06-26T11:34:01.080Z,14
2019-06-26T11:38:01.080Z,15
2019-06-26T11:39:01.085Z,17
2019-06-26T11:40:01.082Z,20
2019-06-26T11:41:02.014Z,21
2019-06-26T11:43:01.087Z,20
2019-06-26T11:44:01.085Z,18
2019-06-26T11:45:01.098Z,17
2019-06-26T11:46:01.120Z,16
2019-06-26T11:47:01.085Z,18
2019-06-26T11:48:01.090Z,19
2019-06-26T11:50:01.150Z,18
2019-06-26T11:52:01.097Z,14
2019-06-26T11:54:01.114Z,15
2019-06-26T11:55:02.847Z,16
2019-06-26T11:56:01.090Z,15
2019-06-26T11:58:01.114Z,14
2019-06-26T11:59:01.094Z,12
2019-06-26T12:00:01.263Z,13
2019-06-26T12:01:01.088Z,14
2019-06-26T12:02:01.091Z,15
2019-06-26T12:03:01.165Z,16
2019-06-26T12:04:01.089Z,17
2019-06-26T12:06:12.222Z,18
2019-06-26T12:08:01.115Z,19
2019-06-26T12:10:01.199Z,18
2019-06-26T12:11:01.126Z,16
2019-06-26T12:15:06.092Z,16
2019-06-26T12:17:01.121Z,18
2019-06-26T12:19:01.098Z,17
2019-06-26T12:21:01.155Z,18
2019-06-26T12:23:01.090Z,17
2019-06-26T12:25:01.090Z,16
2019-06-26T12:27:01.129Z,13
2019-06-26T12:29:01.093Z,15
2019-06-26T12:30:01.098Z,17
2019-06-26T12:31:01.097Z,18
2019-06-26T12:32:01.119Z,20
2019-06-26T12:33:03.179Z,21
2019-06-26T12:34:01.095Z,20
2019-06-26T12:35:01.133Z,19
2019-06-26T12:36:01.096Z,20
2019-06-26T12:37:06.100Z,19
2019-06-26T12:38:01.098Z,18
2019-06-26T12:41:01.090Z,17
2019-06-26T12:43:01.089Z,15
2019-06-26T12:44:01.081Z,14
2019-06-26T12:45:01.084Z,14
2019-06-26T12:46:01.105Z,13
2019-06-26T12:47:01.127Z,12
2019-06-26T12:48:01.078Z,14
2019-06-26T12:49:01.084Z,15
2019-06-26T12:51:01.107Z,16
2019-06-26T12:52:01.092Z,17
2019-06-26T12:55:01.082Z,18
2019-06-26T12:58:12.139Z,16
2019-06-26T12:59:01.085Z,15
2019-06-26T13:00:01.088Z,15
2019-06-26T13:01:01.112Z,14
2019-06-26T13:03:01.096Z,15
2019-06-26T13:05:01.083Z,14
2019-06-26T13:06:01.112Z,15
2019-06-26T13:07:01.082Z,17
2019-06-26T13:08:01.082Z,18
2019-06-26T13:10:01.107Z,16
2019-06-26T13:11:01.114Z,15
2019-06-26T13:12:01.088Z,13
2019-06-26T13:15:01.081Z,15
2019-06-26T13:16:01.117Z,16
2019-06-26T13:17:01.114Z,15
2019-06-26T13:19:01.098Z,16
2019-06-26T13:20:01.172Z,14
2019-06-26T13:22:01.086Z,13
2019-06-26T13:23:01.098Z,12
2019-06-26T13:24:01.114Z,11
2019-06-26T13:25:01.123Z,14
2019-06-26T13:26:01.083Z,13
2019-06-26T13:27:01.097Z,14
2019-06-26T13:28:01.082Z,16
2019-06-26T13:30:01.111Z,15
2019-06-26T13:31:01.086Z,16
2019-06-26T13:32:01.112Z,17
2019-06-26T13:33:01.082Z,16
2019-06-26T13:34:01.084Z,15
2019-06-26T13:35:01.083Z,14
2019-06-26T13:36:01.086Z,13
2019-06-26T13:37:07.382Z,14
2019-06-26T13:40:01.114Z,15
2019-06-26T13:42:01.177Z,14
2019-06-26T13:43:01.088Z,15
2019-06-26T13:44:01.083Z,16
2019-06-26T13:45:01.083Z,15
2019-06-26T13:47:01.110Z,16
2019-06-26T13:50:01.087Z,18
2019-06-26T13:52:01.278Z,17
2019-06-26T13:53:01.146Z,15
2019-06-26T13:54:01.087Z,14
2019-06-26T13:55:01.087Z,12
2019-06-26T13:57:01.186Z,13
2019-06-26T13:58:01.082Z,14
2019-06-26T13:59:01.083Z,15
2019-06-26T14:00:01.095Z,16
2019-06-26T14:01:01.085Z,17
2019-06-26T14:02:01.095Z,16
2019-06-26T14:06:01.082Z,15
2019-06-26T14:07:01.084Z,16
2019-06-26T14:09:01.144Z,15
2019-06-26T14:10:01.081Z,16
2019-06-26T14:13:01.082Z,15
2019-06-26T14:14:01.083Z,16
2019-06-26T14:15:01.081Z,16
2019-06-26T14:16:01.081Z,18
2019-06-26T14:17:01.088Z,19
2019-06-26T14:19:01.081Z,20
2019-06-26T14:20:01.080Z,21
2019-06-26T14:21:01.079Z,19
2019-06-26T14:22:01.085Z,17
2019-06-26T14:23:01.080Z,16
2019-06-26T14:24:01.086Z,15
2019-06-26T14:25:01.079Z,14
2019-06-26T14:26:01.080Z,13
2019-06-26T14:27:01.081Z,16
2019-06-26T14:28:01.125Z,18
2019-06-26T14:29:01.082Z,21
2019-06-26T14:30:01.085Z,21
2019-06-26T14:31:01.084Z,22
2019-06-26T14:32:01.082Z,20
2019-06-26T14:33:01.085Z,19
2019-06-26T14:34:01.082Z,17
2019-06-26T14:35:01.096Z,18
2019-06-26T14:36:01.090Z,19
2019-06-26T14:38:01.122Z,20
2019-06-26T14:40:01.084Z,18
2019-06-26T14:41:01.086Z,19
2019-06-26T14:42:01.084Z,17
2019-06-26T14:45:01.087Z,18
2019-06-26T14:46:01.088Z,16
2019-06-26T14:47:01.103Z,17
2019-06-26T14:49:01.100Z,18
2019-06-26T14:50:01.098Z,17
2019-06-26T14:52:01.094Z,16
2019-06-26T14:56:01.113Z,17
2019-06-26T14:57:01.088Z,18
2019-06-26T14:58:01.089Z,17
2019-06-26T14:59:01.118Z,16
2019-06-26T15:00:01.097Z,15
2019-06-26T15:03:01.092Z,17
2019-06-26T15:04:01.117Z,16
2019-06-26T15:05:01.093Z,17
2019-06-26T15:06:15.328Z,16
2019-06-26T15:07:01.088Z,17
2019-06-26T15:08:01.094Z,16
2019-06-26T15:10:01.119Z,17
2019-06-26T15:14:01.141Z,18
2019-06-26T15:15:01.094Z,18
2019-06-26T15:18:01.102Z,20
2019-06-26T15:19:01.128Z,19
2019-06-26T15:20:01.098Z,17
2019-06-26T15:22:01.094Z,16
2019-06-26T15:23:01.095Z,15
2019-06-26T15:24:01.120Z,14
2019-06-26T15:25:01.095Z,15
2019-06-26T15:26:01.132Z,16
2019-06-26T15:27:01.110Z,17
2019-06-26T15:29:01.095Z,19
2019-06-26T15:30:01.096Z,18
2019-06-26T15:31:01.131Z,17
2019-06-26T15:33:01.099Z,18
2019-06-26T15:34:01.101Z,15
2019-06-26T15:36:01.130Z,16
2019-06-26T15:37:01.099Z,17
2019-06-26T15:39:01.095Z,18
2019-06-26T15:40:01.111Z,17
2019-06-26T15:41:01.129Z,16
2019-06-26T15:42:01.101Z,15
2019-06-26T15:45:01.096Z,15
2019-06-26T15:46:01.120Z,16
2019-06-26T15:49:01.121Z,17
2019-06-26T15:51:01.131Z,15
2019-06-26T15:52:14.361Z,14
2019-06-26T15:53:01.095Z,13
2019-06-26T15:54:01.139Z,12
2019-06-26T15:55:01.098Z,15
2019-06-26T15:59:01.120Z,14
2019-06-26T16:00:01.097Z,13
2019-06-26T16:01:01.098Z,14
2019-06-26T16:04:01.122Z,17
2019-06-26T16:05:01.095Z,16
2019-06-26T16:07:01.173Z,18
2019-06-26T16:11:01.093Z,19
2019-06-26T16:15:01.093Z,18
2019-06-26T16:16:01.092Z,16
2019-06-26T16:17:01.092Z,18
2019-06-26T16:18:01.097Z,19
2019-06-26T16:22:01.096Z,17
2019-06-26T16:25:01.080Z,18
2019-06-26T16:27:01.087Z,17
2019-06-26T16:29:01.082Z,14
2019-06-26T16:30:01.083Z,13
2019-06-26T16:33:01.093Z,14
2019-06-26T16:35:01.084Z,15
2019-06-26T16:37:01.086Z,16
2019-06-26T16:39:01.083Z,17
2019-06-26T16:40:01.143Z,15
2019-06-26T16:41:01.084Z,16
2019-06-26T16:42:01.086Z,14
2019-06-26T16:43:01.087Z,15
2019-06-26T16:44:01.093Z,14
2019-06-26T16:45:01.087Z,13
2019-06-26T16:46:01.084Z,14
2019-06-26T16:49:01.088Z,16
2019-06-26T16:50:01.095Z,18
2019-06-26T16:51:01.083Z,17
2019-06-26T16:53:01.090Z,19
2019-06-26T16:54:01.083Z,20
2019-06-26T16:57:01.084Z,21
2019-06-26T16:58:01.085Z,19
2019-06-26T16:59:01.083Z,18
2019-06-26T17:00:09.204Z,17
2019-06-26T17:01:01.100Z,18
2019-06-26T17:03:01.083Z,16
2019-06-26T17:07:01.086Z,15
2019-06-26T17:08:01.109Z,16
2019-06-26T17:12:01.086Z,17
2019-06-26T17:14:01.083Z,19
2019-06-26T17:15:04.076Z,21
2019-06-26T17:16:01.096Z,22
2019-06-26T17:17:01.087Z,20
2019-06-26T17:19:01.094Z,19
2019-06-26T17:20:01.087Z,17
2019-06-26T17:21:01.088Z,15
2019-06-26T17:22:01.088Z,14
2019-06-26T17:23:05.943Z,13
2019-06-26T17:24:01.086Z,12
2019-06-26T17:25:01.091Z,14
2019-06-26T17:26:01.093Z,16
2019-06-26T17:27:01.101Z,18
2019-06-26T17:28:01.087Z,19
2019-06-26T17:29:01.101Z,20
2019-06-26T17:30:01.095Z,19
2019-06-26T17:31:01.093Z,18
2019-06-26T17:32:01.089Z,17
2019-06-26T17:33:01.089Z,16
2019-06-26T17:35:01.099Z,18
2019-06-26T17:36:01.090Z,20
2019-06-26T17:39:01.105Z,21
2019-06-26T17:40:01.094Z,18
2019-06-26T17:41:01.091Z,16
2019-06-26T17:42:01.162Z,17
2019-06-26T17:43:11.595Z,19
2019-06-26T17:44:01.124Z,17
2019-06-26T17:45:01.101Z,18
2019-06-26T17:47:04.428Z,19
2019-06-26T17:48:01.118Z,16
2019-06-26T17:49:01.091Z,17
2019-06-26T17:50:01.090Z,18
2019-06-26T17:51:01.099Z,17
2019-06-26T17:52:01.094Z,16
2019-06-26T17:54:01.091Z,14
2019-06-26T17:57:01.091Z,15
2019-06-26T17:58:01.117Z,16
2019-06-26T18:00:01.094Z,15
2019-06-26T18:01:01.127Z,16
2019-06-26T18:02:01.104Z,15
2019-06-26T18:04:01.100Z,16
2019-06-26T18:05:01.093Z,19
2019-06-26T18:06:01.090Z,17
2019-06-26T18:07:01.091Z,18
2019-06-26T18:09:01.108Z,17
2019-06-26T18:10:01.092Z,15
2019-06-26T18:11:01.095Z,14
2019-06-26T18:13:01.126Z,15
2019-06-26T18:14:01.092Z,14
2019-06-26T18:15:01.102Z,16
2019-06-26T18:16:01.095Z,17
2019-06-26T18:17:01.107Z,16
2019-06-26T18:18:01.125Z,14
2019-06-26T18:19:01.095Z,16
2019-06-26T18:20:01.109Z,15
2019-06-26T18:21:01.098Z,14
2019-06-26T18:22:01.094Z,16
2019-06-26T18:23:06.848Z,17
2019-06-26T18:24:01.105Z,16
2019-06-26T18:25:01.092Z,17
2019-06-26T18:27:01.097Z,16
2019-06-26T18:29:01.096Z,14
2019-06-26T18:30:01.097Z,14
2019-06-26T18:31:01.098Z,16
2019-06-26T18:32:01.096Z,18
2019-06-26T18:33:01.126Z,19
2019-06-26T18:34:01.094Z,20
2019-06-26T18:35:01.093Z,19
2019-06-26T18:36:01.093Z,18
2019-06-26T18:37:01.100Z,15
2019-06-26T18:39:01.157Z,16
2019-06-26T18:40:01.098Z,18
2019-06-26T18:41:01.091Z,16
2019-06-26T18:42:01.096Z,17
2019-06-26T18:44:01.099Z,15
2019-06-26T18:45:01.098Z,14
2019-06-26T18:46:01.091Z,16
2019-06-26T18:47:01.092Z,15
2019-06-26T18:48:01.132Z,14
2019-06-26T18:49:01.143Z,15
2019-06-26T18:50:01.093Z,14
2019-06-26T18:51:01.093Z,13
2019-06-26T18:53:01.126Z,15
2019-06-26T18:54:01.305Z,16
2019-06-26T18:58:01.132Z,15
2019-06-26T18:59:01.101Z,14
2019-06-26T19:00:01.091Z,15
2019-06-26T19:01:01.090Z,17
2019-06-26T19:02:01.093Z,16
2019-06-26T19:03:01.117Z,15
2019-06-26T19:04:01.091Z,16
2019-06-26T19:05:01.116Z,17
2019-06-26T19:06:01.116Z,15
2019-06-26T19:07:01.091Z,16
2019-06-26T19:09:01.115Z,15
2019-06-26T19:10:01.088Z,14
2019-06-26T19:12:01.091Z,13
2019-06-26T19:13:01.088Z,15
2019-06-26T19:15:06.095Z,16
2019-06-26T19:16:04.269Z,15
2019-06-26T19:21:01.087Z,17
2019-06-26T19:23:01.086Z,16
2019-06-26T19:24:09.930Z,17
2019-06-26T19:25:01.150Z,16
2019-06-26T19:27:01.087Z,18
2019-06-26T19:28:01.088Z,17
2019-06-26T19:30:01.090Z,18
2019-06-26T19:32:01.088Z,17
2019-06-26T19:33:01.091Z,19
2019-06-26T19:34:01.088Z,18
2019-06-26T19:35:07.823Z,19
2019-06-26T19:37:01.057Z,18
2019-06-26T19:38:01.088Z,16
2019-06-26T19:39:01.146Z,15
2019-06-26T19:40:01.096Z,13
2019-06-26T19:43:01.090Z,14
2019-06-26T19:44:01.089Z,16
2019-06-26T19:45:01.097Z,17
2019-06-26T19:49:01.098Z,16
2019-06-26T19:52:01.087Z,15
2019-06-26T19:53:01.093Z,16
2019-06-26T19:55:01.089Z,18
2019-06-26T19:56:01.089Z,17
2019-06-26T19:57:01.101Z,18
2019-06-26T19:58:01.090Z,17
2019-06-26T19:59:01.124Z,16
2019-06-26T20:00:01.104Z,14
2019-06-26T20:02:01.093Z,15
2019-06-26T20:03:01.100Z,17
2019-06-26T20:04:01.126Z,18
2019-06-26T20:05:01.093Z,19
2019-06-26T20:08:01.094Z,18
2019-06-26T20:09:01.194Z,17
2019-06-26T20:10:01.969Z,16
2019-06-26T20:12:01.089Z,15
2019-06-26T20:13:01.088Z,14
2019-06-26T20:14:01.130Z,13
2019-06-26T20:15:01.090Z,16
2019-06-26T20:18:04.041Z,17
2019-06-26T20:20:01.093Z,16
2019-06-26T20:21:01.107Z,15
2019-06-26T20:22:01.100Z,18
2019-06-26T20:24:06.103Z,20